Time;durP1;ratioP1;P1;durP2;ratioP2;P2;SDS_P1;SDS_P2;PMS_P1;PMS_P2;Temp;Humidity;BMP_temperature;BMP_pressure;BME280_temperature;BME280_humidity;BME280_pressure;Samples;Min_cycle;Max_cycle;Signal;HPM_P1;HPM_P2
2022/08/08 00:01:06;;;;;;;7.50;3.90;;;;;;;;;;5127599;27;20054;-61
2022/08/08 00:03:40;;;;;;;7.13;3.65;;;;;;;;;;5134813;27;20117;-61
2022/08/08 00:06:17;;;;;;;6.70;3.90;;;;;;;;;;5124365;27;20079;-61
2022/08/08 00:08:50;;;;;;;4.90;3.25;;;;;;;;;;5131326;27;20498;-61
2022/08/08 00:11:16;;;;;;;;;;;;;;;;;;5129905;27;20096;-61
2022/08/08 00:13:48;;;;;;;8.65;1.63;;;;;;;;;;5127438;27;20371;-61
2022/08/08 00:16:22;;;;;;;4.55;1.70;;;;;;;;;;5129879;27;20039;-62
2022/08/08 00:18:52;;;;;;;55.63;3.30;;;;;;;;;;5113647;27;20584;-61
2022/08/08 00:21:21;;;;;;;3.40;2.03;;;;;;;;;;5129861;27;20035;-61
2022/08/08 00:23:57;;;;;;;4.10;2.20;;;;;;;;;;5133055;27;20061;-61
2022/08/08 00:26:26;;;;;;;3.50;2.10;;;;;;;;;;5133082;27;20392;-61
2022/08/08 00:28:53;;;;;;;2.88;1.60;;;;;;;;;;5132207;27;20096;-61
2022/08/08 00:31:23;;;;;;;7.65;2.20;;;;;;;;;;5111413;27;20475;-61
2022/08/08 00:35:09;;;;;;;7.18;2.47;;;;;;;;;;5097993;27;20513;-61
2022/08/08 00:36:48;;;;;;;7.60;3.10;;;;;;;;;;5124726;27;20047;-61
2022/08/08 00:39:19;;;;;;;5.50;3.60;;;;;;;;;;5122123;27;20054;-61
2022/08/08 00:42:03;;;;;;;8.80;3.80;;;;;;;;;;5105814;27;20043;-61
2022/08/08 00:44:36;;;;;;;9.23;3.78;;;;;;;;;;5123733;27;20039;-61
2022/08/08 00:47:16;;;;;;;7.80;3.30;;;;;;;;;;5126893;27;20586;-61
2022/08/08 00:50:02;;;;;;;28.65;3.67;;;;;;;;;;5105083;27;20305;-61
2022/08/08 00:52:47;;;;;;;189.75;8.48;;;;;;;;;;5125414;27;20042;-61
2022/08/08 00:55:19;;;;;;;64.88;5.55;;;;;;;;;;5122192;27;20099;-61
2022/08/08 00:57:52;;;;;;;63.63;4.30;;;;;;;;;;5122024;27;20095;-61
2022/08/08 01:00:20;;;;;;;36.45;3.78;;;;;;;;;;5124660;27;20044;-62
2022/08/08 01:02:52;;;;;;;4.85;2.50;;;;;;;;;;5127684;27;20039;-61
2022/08/08 01:05:23;;;;;;;3.40;2.50;;;;;;;;;;5108088;27;20046;-61
2022/08/08 01:08:16;;;;;;;3.75;2.50;;;;;;;;;;5122350;27;20482;-61
2022/08/08 01:10:57;;;;;;;3.50;2.30;;;;;;;;;;5122592;27;20046;-61
2022/08/08 01:13:54;;;;;;;6.57;3.35;;;;;;;;;;5106442;27;20043;-61
2022/08/08 01:16:44;;;;;;;81.13;7.07;;;;;;;;;;5124249;27;20103;-61
2022/08/08 01:19:11;;;;;;;142.00;8.25;;;;;;;;;;5123345;27;20058;-61
2022/08/08 01:21:46;;;;;;;8.93;5.30;;;;;;;;;;5126652;27;20039;-61
2022/08/08 01:24:29;;;;;;;16.92;6.35;;;;;;;;;;5101953;27;20043;-61
2022/08/08 01:27:06;;;;;;;146.77;9.05;;;;;;;;;;5121456;27;20039;-61
2022/08/08 01:29:34;;;;;;;75.07;6.57;;;;;;;;;;5118679;27;20047;-62
2022/08/08 01:32:18;;;;;;;20.52;5.03;;;;;;;;;;5121778;27;20055;-61
2022/08/08 01:34:54;;;;;;;27.45;5.00;;;;;;;;;;5130992;27;20081;-62
2022/08/08 01:37:25;;;;;;;5.25;3.80;;;;;;;;;;5118511;27;20051;-61
2022/08/08 01:40:11;;;;;;;12.40;3.90;;;;;;;;;;5118170;27;20181;-61
2022/08/08 01:42:37;;;;;;;5.60;3.65;;;;;;;;;;5122704;27;20217;-61
2022/08/08 01:45:12;;;;;;;4.45;3.60;;;;;;;;;;5122445;27;20081;-61
2022/08/08 01:47:53;;;;;;;5.63;3.90;;;;;;;;;;5121488;27;20107;-62
2022/08/08 01:50:19;;;;;;;8.57;3.42;;;;;;;;;;5102561;27;20039;-61
2022/08/08 01:53:04;;;;;;;9.15;2.30;;;;;;;;;;5117995;27;20183;-61
2022/08/08 01:55:44;;;;;;;10.73;1.90;;;;;;;;;;5127294;27;20042;-61
2022/08/08 01:58:17;;;;;;;9.27;2.63;;;;;;;;;;5120316;27;20034;-61
2022/08/08 02:00:53;;;;;;;26.00;3.20;;;;;;;;;;5126080;27;20146;-61
2022/08/08 02:03:25;;;;;;;48.05;3.65;;;;;;;;;;5121300;27;20520;-62
2022/08/08 02:05:57;;;;;;;11.07;2.33;;;;;;;;;;5123328;27;20117;-61
2022/08/08 02:08:29;;;;;;;21.58;4.25;;;;;;;;;;5122714;27;20055;-61
2022/08/08 02:11:00;;;;;;;7.80;4.47;;;;;;;;;;5125507;27;20035;-61
2022/08/08 02:13:31;;;;;;;8.95;3.78;;;;;;;;;;5120269;27;20149;-61
2022/08/08 02:16:02;;;;;;;8.02;3.75;;;;;;;;;;5104461;27;20662;-61
2022/08/08 02:18:38;;;;;;;4.50;3.30;;;;;;;;;;5117086;27;20098;-61
2022/08/08 02:24:20;;;;;;;5.45;2.67;;;;;;;;;;5122848;27;20126;-61
2022/08/08 02:26:52;;;;;;;5.00;2.78;;;;;;;;;;5122058;27;20039;-62
2022/08/08 02:29:33;;;;;;;4.28;3.15;;;;;;;;;;5121091;27;20431;-61
2022/08/08 02:32:05;;;;;;;8.27;3.70;;;;;;;;;;5120865;27;20035;-61
2022/08/08 02:34:32;;;;;;;9.75;4.95;;;;;;;;;;5122788;27;20043;-62
2022/08/08 02:37:08;;;;;;;7.20;5.70;;;;;;;;;;5106115;27;20578;-62
2022/08/08 02:39:46;;;;;;;7.65;5.47;;;;;;;;;;5096771;27;20665;-61
2022/08/08 02:42:13;;;;;;;8.00;6.28;;;;;;;;;;5100544;27;20362;-61
2022/08/08 02:44:49;;;;;;;7.18;6.43;;;;;;;;;;5123502;27;20047;-61
2022/08/08 02:47:18;;;;;;;7.88;5.10;;;;;;;;;;5121226;27;20083;-62
2022/08/08 02:49:45;;;;;;;9.45;6.05;;;;;;;;;;5118726;27;20327;-61
2022/08/08 02:52:21;;;;;;;8.50;5.00;;;;;;;;;;5119717;27;20122;-61
2022/08/08 02:54:58;;;;;;;7.75;5.75;;;;;;;;;;5097819;27;20043;-62
2022/08/08 02:57:39;;;;;;;7.68;5.68;;;;;;;;;;5120929;27;20057;-61
2022/08/08 03:00:07;;;;;;;6.20;5.22;;;;;;;;;;5122627;27;20043;-61
2022/08/08 03:02:50;;;;;;;8.35;5.35;;;;;;;;;;5124477;27;20037;-61
2022/08/08 03:05:16;;;;;;;6.40;5.20;;;;;;;;;;5108974;27;20062;-61
2022/08/08 03:07:59;;;;;;;8.88;5.95;;;;;;;;;;5125611;27;20043;-61
2022/08/08 03:10:44;;;;;;;9.57;5.45;;;;;;;;;;5126699;27;20484;-61
2022/08/08 03:13:34;;;;;;;9.85;5.35;;;;;;;;;;5129971;27;20057;-61
2022/08/08 03:16:06;;;;;;;10.30;5.93;;;;;;;;;;5128455;27;20039;-61
2022/08/08 03:18:37;;;;;;;11.23;6.75;;;;;;;;;;5128065;27;20387;-61
2022/08/08 03:21:03;;;;;;;9.45;7.03;;;;;;;;;;5095328;27;20073;-61
2022/08/08 03:23:30;;;;;;;12.07;7.72;;;;;;;;;;5112146;27;20046;-61
2022/08/08 03:25:57;;;;;;;9.18;7.10;;;;;;;;;;5125584;27;20050;-61
2022/08/08 03:28:30;;;;;;;11.85;7.60;;;;;;;;;;5115268;27;20046;-61
2022/08/08 03:30:56;;;;;;;;;;;;;;;;;;5113191;27;20039;-61
2022/08/08 03:33:23;;;;;;;17.00;7.30;;;;;;;;;;5128043;27;19927;-61
2022/08/08 03:35:50;;;;;;;10.23;7.82;;;;;;;;;;5131011;27;20097;-61
2022/08/08 03:38:19;;;;;;;13.60;8.70;;;;;;;;;;5129620;27;20073;-61
2022/08/08 03:40:53;;;;;;;12.50;8.13;;;;;;;;;;5126489;27;20054;-61
2022/08/08 03:43:19;;;;;;;13.20;9.52;;;;;;;;;;5129165;27;20039;-61
2022/08/08 03:45:45;;;;;;;13.75;9.48;;;;;;;;;;5124533;27;20055;-61
2022/08/08 03:48:12;;;;;;;13.57;9.15;;;;;;;;;;5125717;27;20448;-61
2022/08/08 03:50:45;;;;;;;16.77;9.07;;;;;;;;;;5125887;27;20047;-61
2022/08/08 03:53:12;;;;;;;14.10;9.70;;;;;;;;;;5108133;27;20046;-61
2022/08/08 03:55:39;;;;;;;13.00;9.27;;;;;;;;;;5097256;27;20542;-61
2022/08/08 03:58:06;;;;;;;13.02;10.13;;;;;;;;;;5118296;27;20045;-61
2022/08/08 04:00:32;;;;;;;15.27;9.13;;;;;;;;;;5122270;27;20043;-62
2022/08/08 04:02:59;;;;;;;10.30;8.65;;;;;;;;;;5123163;27;20039;-62
2022/08/08 04:05:26;;;;;;;13.38;8.93;;;;;;;;;;5103890;27;20091;-61
2022/08/08 04:07:52;;;;;;;12.30;10.23;;;;;;;;;;5102961;27;20814;-62
2022/08/08 04:10:18;;;;;;;11.38;9.02;;;;;;;;;;5122889;27;20428;-61
2022/08/08 04:12:45;;;;;;;14.30;9.93;;;;;;;;;;5126128;27;20462;-61
2022/08/08 04:15:11;;;;;;;13.95;10.30;;;;;;;;;;5108013;27;20176;-61
2022/08/08 04:17:37;;;;;;;11.18;9.20;;;;;;;;;;5126468;27;20068;-61
2022/08/08 04:20:04;;;;;;;11.60;9.63;;;;;;;;;;5122412;27;20074;-61
2022/08/08 04:22:30;;;;;;;14.38;9.38;;;;;;;;;;5108623;27;20035;-61
2022/08/08 04:24:57;;;;;;;14.10;9.45;;;;;;;;;;5122482;27;20043;-61
2022/08/08 04:27:23;;;;;;;13.85;10.27;;;;;;;;;;5125716;27;20136;-62
2022/08/08 04:29:49;;;;;;;11.25;9.00;;;;;;;;;;5126646;27;20039;-61
2022/08/08 04:32:16;;;;;;;14.02;9.52;;;;;;;;;;5125203;27;20242;-61
2022/08/08 04:34:42;;;;;;;14.18;9.38;;;;;;;;;;5127816;27;20058;-61
2022/08/08 04:37:08;;;;;;;15.43;9.80;;;;;;;;;;5132332;27;20630;-61
2022/08/08 04:39:35;;;;;;;12.70;10.05;;;;;;;;;;5130308;27;20055;-61
2022/08/08 04:42:01;;;;;;;15.32;10.73;;;;;;;;;;5114629;27;20160;-61
2022/08/08 04:44:27;;;;;;;16.08;9.98;;;;;;;;;;5132783;27;20456;-61
2022/08/08 04:46:53;;;;;;;13.00;9.88;;;;;;;;;;5129425;27;20493;-61
2022/08/08 04:49:20;;;;;;;17.80;10.98;;;;;;;;;;5139409;27;20050;-61
2022/08/08 04:51:46;;;;;;;13.02;10.23;;;;;;;;;;5135789;27;20045;-61
2022/08/08 04:54:12;;;;;;;18.83;11.07;;;;;;;;;;5132007;27;20470;-61
2022/08/08 04:56:38;;;;;;;15.15;10.55;;;;;;;;;;5134697;27;20123;-61
2022/08/08 04:59:04;;;;;;;12.45;10.48;;;;;;;;;;5136203;27;20723;-61
2022/08/08 05:01:31;;;;;;;14.10;10.43;;;;;;;;;;5137175;27;20100;-61
2022/08/08 05:03:57;;;;;;;14.50;10.45;;;;;;;;;;5135655;27;20042;-61
2022/08/08 05:06:23;;;;;;;14.38;9.77;;;;;;;;;;5134061;27;20142;-61
2022/08/08 05:08:49;;;;;;;16.27;10.60;;;;;;;;;;5134132;27;20100;-61
2022/08/08 05:11:15;;;;;;;17.23;10.65;;;;;;;;;;5137653;27;20046;-61
2022/08/08 05:13:42;;;;;;;14.20;10.73;;;;;;;;;;5135938;27;20043;-61
2022/08/08 05:16:09;;;;;;;16.33;10.82;;;;;;;;;;5128213;27;20035;-61
2022/08/08 05:18:36;;;;;;;11.82;10.38;;;;;;;;;;5137073;27;20146;-61
2022/08/08 05:21:03;;;;;;;13.23;10.25;;;;;;;;;;5136439;27;20039;-61
2022/08/08 05:23:29;;;;;;;20.45;12.30;;;;;;;;;;5138506;27;20049;-61
2022/08/08 05:25:56;;;;;;;16.38;11.45;;;;;;;;;;5134061;27;20430;-61
2022/08/08 05:28:22;;;;;;;17.63;10.75;;;;;;;;;;5133163;27;20055;-61
2022/08/08 05:30:48;;;;;;;12.50;10.80;;;;;;;;;;5130208;27;20095;-61
2022/08/08 05:33:15;;;;;;;19.20;12.25;;;;;;;;;;5129865;27;20047;-61
2022/08/08 05:35:42;;;;;;;15.20;11.55;;;;;;;;;;5129280;27;20032;-61
2022/08/08 05:38:09;;;;;;;16.33;12.15;;;;;;;;;;5130219;27;20103;-61
2022/08/08 05:40:36;;;;;;;20.92;12.93;;;;;;;;;;5131622;27;20458;-61
2022/08/08 05:43:04;;;;;;;14.32;11.63;;;;;;;;;;5130245;27;20409;-61
2022/08/08 05:45:34;;;;;;;18.02;11.30;;;;;;;;;;5129911;27;20482;-61
2022/08/08 05:48:01;;;;;;;18.05;12.63;;;;;;;;;;5130687;27;20039;-61
2022/08/08 05:50:28;;;;;;;20.35;12.45;;;;;;;;;;5112345;27;20039;-61
2022/08/08 05:52:54;;;;;;;18.17;12.23;;;;;;;;;;5129799;27;20091;-61
2022/08/08 05:55:20;;;;;;;19.67;11.98;;;;;;;;;;5130875;27;20582;-61
2022/08/08 05:57:50;;;;;;;15.50;11.88;;;;;;;;;;5129213;27;20118;-61
2022/08/08 06:00:17;;;;;;;17.00;11.30;;;;;;;;;;5128957;27;20185;-61
2022/08/08 06:05:31;;;;;;;18.27;12.65;;;;;;;;;;5134928;27;20035;-61
2022/08/08 06:07:58;;;;;;;18.38;11.48;;;;;;;;;;5135523;27;20051;-61
2022/08/08 06:10:25;;;;;;;18.63;12.23;;;;;;;;;;5138980;27;20199;-61
2022/08/08 06:12:51;;;;;;;17.52;11.93;;;;;;;;;;5132810;27;20160;-61
2022/08/08 06:15:17;;;;;;;16.95;11.10;;;;;;;;;;5130441;27;20134;-61
2022/08/08 06:17:43;;;;;;;14.95;10.27;;;;;;;;;;5126762;27;20525;-61
2022/08/08 06:20:12;;;;;;;18.65;10.52;;;;;;;;;;5110140;27;20051;-61
2022/08/08 06:22:39;;;;;;;17.58;10.82;;;;;;;;;;5127190;27;20222;-61
2022/08/08 06:25:06;;;;;;;15.55;10.50;;;;;;;;;;5109824;27;20383;-61
2022/08/08 06:27:46;;;;;;;14.15;9.93;;;;;;;;;;5126793;27;20105;-61
2022/08/08 06:30:13;;;;;;;15.30;9.38;;;;;;;;;;5128678;27;20123;-61
2022/08/08 06:32:53;;;;;;;15.38;10.63;;;;;;;;;;5132468;27;20035;-61
2022/08/08 06:35:19;;;;;;;11.82;6.47;;;;;;;;;;5131618;27;20096;-61
2022/08/08 06:37:47;;;;;;;10.38;6.50;;;;;;;;;;5126831;27;20071;-61
2022/08/08 06:40:14;;;;;;;7.38;4.95;;;;;;;;;;5125925;27;20035;-61
2022/08/08 06:42:44;;;;;;;11.95;3.88;;;;;;;;;;5127547;27;20070;-61
2022/08/08 06:45:11;;;;;;;10.23;3.97;;;;;;;;;;5131495;27;20039;-61
2022/08/08 06:47:37;;;;;;;10.25;3.63;;;;;;;;;;5111648;27;20051;-61
2022/08/08 06:50:04;;;;;;;6.32;3.08;;;;;;;;;;5130695;27;20397;-61
2022/08/08 06:52:31;;;;;;;6.97;3.25;;;;;;;;;;5130101;27;20031;-61
2022/08/08 06:55:00;;;;;;;8.32;2.80;;;;;;;;;;5131315;27;20076;-61
2022/08/08 06:57:26;;;;;;;14.02;3.92;;;;;;;;;;5128742;27;20050;-61
2022/08/08 06:59:53;;;;;;;9.80;3.38;;;;;;;;;;5128739;27;20457;-62
2022/08/08 07:02:23;;;;;;;4.07;2.03;;;;;;;;;;5130976;27;20131;-62
2022/08/08 07:04:56;;;;;;;4.05;1.48;;;;;;;;;;5128265;27;20115;-62
2022/08/08 07:07:22;;;;;;;;;;;;;;;;;;5131099;27;20039;-62
2022/08/08 07:09:50;;;;;;;6.05;1.95;;;;;;;;;;5113538;27;20350;-62
2022/08/08 07:12:19;;;;;;;7.70;1.67;;;;;;;;;;5128372;27;20390;-61
2022/08/08 07:14:51;;;;;;;6.25;1.45;;;;;;;;;;5136030;27;20509;-62
2022/08/08 07:17:21;;;;;;;8.93;2.83;;;;;;;;;;5137910;27;20051;-62
2022/08/08 07:19:54;;;;;;;6.60;2.17;;;;;;;;;;5144280;27;20355;-62
2022/08/08 07:22:27;;;;;;;5.75;1.70;;;;;;;;;;5129801;27;20039;-62
2022/08/08 07:24:56;;;;;;;6.22;2.00;;;;;;;;;;5141196;27;20046;-62
2022/08/08 07:27:25;;;;;;;4.53;1.75;;;;;;;;;;5147863;27;20034;-62
2022/08/08 07:29:52;;;;;;;4.63;1.20;;;;;;;;;;5146846;27;20221;-62
2022/08/08 07:32:18;;;;;;;6.82;1.60;;;;;;;;;;5144257;27;20138;-62
2022/08/08 07:34:45;;;;;;;5.63;1.55;;;;;;;;;;5149250;27;20042;-62
2022/08/08 07:37:12;;;;;;;4.30;1.52;;;;;;;;;;5147570;27;20031;-62
2022/08/08 07:39:41;;;;;;;6.15;1.77;;;;;;;;;;5135010;27;20042;-61
2022/08/08 07:42:10;;;;;;;5.13;1.48;;;;;;;;;;5135996;27;20137;-62
2022/08/08 07:44:37;;;;;;;3.95;1.38;;;;;;;;;;5139048;27;20051;-62
2022/08/08 07:47:03;;;;;;;7.32;1.85;;;;;;;;;;5134507;27;20034;-62
2022/08/08 07:49:29;;;;;;;6.28;1.83;;;;;;;;;;5139126;27;20046;-62
2022/08/08 07:51:56;;;;;;;6.38;1.80;;;;;;;;;;5138304;27;20080;-62
2022/08/08 07:54:27;;;;;;;9.05;2.00;;;;;;;;;;5137404;27;20101;-62
2022/08/08 07:56:54;;;;;;;7.50;2.03;;;;;;;;;;5135459;27;20066;-62
2022/08/08 07:59:22;;;;;;;4.93;1.88;;;;;;;;;;5133689;27;20046;-62
2022/08/08 08:01:55;;;;;;;6.72;1.95;;;;;;;;;;5137399;27;20170;-62
2022/08/08 08:04:24;;;;;;;7.45;2.25;;;;;;;;;;5132185;27;20105;-62
2022/08/08 08:06:51;;;;;;;4.30;1.67;;;;;;;;;;5129177;27;20073;-62
2022/08/08 08:09:21;;;;;;;5.43;1.60;;;;;;;;;;5133404;27;20034;-62
2022/08/08 08:11:48;;;;;;;6.85;1.92;;;;;;;;;;5107551;27;20051;-62
2022/08/08 08:14:18;;;;;;;7.43;2.60;;;;;;;;;;5132462;27;20093;-62
2022/08/08 08:16:46;;;;;;;4.10;1.80;;;;;;;;;;5134014;27;20034;-62
2022/08/08 08:19:13;;;;;;;7.57;1.63;;;;;;;;;;5131670;27;20047;-62
2022/08/08 08:21:46;;;;;;;10.70;2.00;;;;;;;;;;5133468;27;20142;-62
2022/08/08 08:24:12;;;;;;;;;;;;;;;;;;5132818;27;20043;-62
2022/08/08 08:26:39;;;;;;;8.70;1.95;;;;;;;;;;5131954;27;19974;-62
2022/08/08 08:29:05;;;;;;;6.75;1.90;;;;;;;;;;5132297;27;20043;-62
2022/08/08 08:31:32;;;;;;;6.95;2.08;;;;;;;;;;5133350;27;20047;-62
2022/08/08 08:33:58;;;;;;;6.28;2.30;;;;;;;;;;5113708;27;20765;-62
2022/08/08 08:36:24;;;;;;;6.30;2.00;;;;;;;;;;5134259;27;20039;-62
2022/08/08 08:38:51;;;;;;;7.72;1.92;;;;;;;;;;5132284;27;20158;-62
2022/08/08 08:41:18;;;;;;;7.00;1.80;;;;;;;;;;5137447;27;20039;-62
2022/08/08 08:43:45;;;;;;;7.30;2.22;;;;;;;;;;5131912;27;20034;-62
2022/08/08 08:46:12;;;;;;;7.78;1.88;;;;;;;;;;5128729;27;20043;-62
2022/08/08 08:48:40;;;;;;;5.85;1.65;;;;;;;;;;5138250;27;20043;-62
2022/08/08 08:51:10;;;;;;;6.70;2.22;;;;;;;;;;5135813;27;20107;-62
2022/08/08 08:53:37;;;;;;;11.45;2.80;;;;;;;;;;5133783;27;20050;-62
2022/08/08 08:56:03;;;;;;;8.07;2.70;;;;;;;;;;5133237;27;20099;-62
2022/08/08 08:58:34;;;;;;;5.55;2.20;;;;;;;;;;5129408;27;20038;-62
2022/08/08 09:01:01;;;;;;;6.75;2.13;;;;;;;;;;5138018;27;20039;-62
2022/08/08 09:03:27;;;;;;;7.72;3.05;;;;;;;;;;5128099;27;20042;-62
2022/08/08 09:05:54;;;;;;;5.75;2.70;;;;;;;;;;5127024;27;20376;-62
2022/08/08 09:08:23;;;;;;;10.60;2.97;;;;;;;;;;5109896;27;20816;-62
2022/08/08 09:10:49;;;;;;;8.63;2.67;;;;;;;;;;5135666;27;20046;-62
2022/08/08 09:13:16;;;;;;;5.60;2.45;;;;;;;;;;5126881;27;20065;-62
2022/08/08 09:15:42;;;;;;;7.15;2.90;;;;;;;;;;5115004;27;20042;-62
2022/08/08 09:18:09;;;;;;;6.00;2.33;;;;;;;;;;5129748;27;20134;-62
2022/08/08 09:20:36;;;;;;;8.73;3.20;;;;;;;;;;5127317;27;20051;-62
2022/08/08 09:23:03;;;;;;;13.55;3.78;;;;;;;;;;5138085;27;20049;-62
2022/08/08 09:25:32;;;;;;;9.43;3.30;;;;;;;;;;5130973;27;20120;-62
2022/08/08 09:27:59;;;;;;;8.93;2.95;;;;;;;;;;5100889;27;20062;-62
2022/08/08 09:30:26;;;;;;;8.80;2.92;;;;;;;;;;5136255;27;20043;-62
2022/08/08 09:32:54;;;;;;;8.43;3.33;;;;;;;;;;5134739;27;20513;-62
2022/08/08 09:35:24;;;;;;;9.73;3.15;;;;;;;;;;5134008;27;20047;-62
2022/08/08 09:37:52;;;;;;;8.05;3.10;;;;;;;;;;5130253;27;20039;-62
2022/08/08 09:40:19;;;;;;;6.90;3.22;;;;;;;;;;5134525;27;20394;-62
2022/08/08 09:42:46;;;;;;;7.07;3.33;;;;;;;;;;5132039;27;20386;-62
2022/08/08 09:45:19;;;;;;;7.95;3.40;;;;;;;;;;5132520;27;20042;-62
2022/08/08 09:47:46;;;;;;;9.43;2.55;;;;;;;;;;5132419;27;20035;-62
2022/08/08 09:50:13;;;;;;;6.30;2.80;;;;;;;;;;5133089;27;20043;-62
2022/08/08 09:52:42;;;;;;;6.25;2.60;;;;;;;;;;5111520;27;20047;-62
2022/08/08 09:55:08;;;;;;;6.32;2.33;;;;;;;;;;5131415;27;20083;-62
2022/08/08 09:57:36;;;;;;;6.85;1.98;;;;;;;;;;5125854;27;20043;-62
2022/08/08 10:00:05;;;;;;;7.20;2.20;;;;;;;;;;5128204;27;20209;-62
2022/08/08 10:02:35;;;;;;;7.03;2.13;;;;;;;;;;5116141;27;20047;-62
2022/08/08 10:05:03;;;;;;;6.68;2.00;;;;;;;;;;5133643;27;20045;-62
2022/08/08 10:07:30;;;;;;;6.68;2.03;;;;;;;;;;5139048;27;20106;-62
2022/08/08 10:09:56;;;;;;;4.95;1.90;;;;;;;;;;5120781;27;20545;-62
2022/08/08 10:12:31;;;;;;;6.15;2.20;;;;;;;;;;5134823;27;20086;-62
2022/08/08 10:15:04;;;;;;;8.00;2.25;;;;;;;;;;5130887;27;20039;-62
2022/08/08 10:17:32;;;;;;;5.35;2.25;;;;;;;;;;5130971;27;20041;-62
2022/08/08 10:20:00;;;;;;;5.25;2.17;;;;;;;;;;5117640;27;20043;-62
2022/08/08 10:22:28;;;;;;;6.18;1.80;;;;;;;;;;5136452;27;20045;-62
2022/08/08 10:25:06;;;;;;;6.28;1.77;;;;;;;;;;5134926;27;20047;-62
2022/08/08 10:27:44;;;;;;;4.60;1.60;;;;;;;;;;5137908;27;20455;-62
2022/08/08 10:30:11;;;;;;;4.85;1.85;;;;;;;;;;5135542;27;20092;-62
2022/08/08 10:32:40;;;;;;;6.45;2.25;;;;;;;;;;5132612;27;20042;-62
2022/08/08 10:35:12;;;;;;;4.07;1.45;;;;;;;;;;5134268;27;20047;-62
2022/08/08 10:37:41;;;;;;;6.22;1.98;;;;;;;;;;5132372;27;20031;-62
2022/08/08 10:40:14;;;;;;;4.68;1.40;;;;;;;;;;5132321;27;20031;-62
2022/08/08 10:42:41;;;;;;;5.78;1.42;;;;;;;;;;5133492;27;20090;-62
2022/08/08 10:45:09;;;;;;;5.57;1.52;;;;;;;;;;5131955;27;20091;-62
2022/08/08 10:47:35;;;;;;;5.10;1.30;;;;;;;;;;5133564;27;20594;-62
2022/08/08 10:50:03;;;;;;;5.15;1.77;;;;;;;;;;5132879;27;20398;-62
2022/08/08 10:52:32;;;;;;;5.95;1.90;;;;;;;;;;5134787;27;20047;-62
2022/08/08 10:55:00;;;;;;;4.65;1.58;;;;;;;;;;5135378;27;20058;-62
2022/08/08 10:57:26;;;;;;;4.20;1.45;;;;;;;;;;5137673;27;20049;-62
2022/08/08 10:59:53;;;;;;;3.50;1.20;;;;;;;;;;5133263;27;20054;-62
2022/08/08 11:02:24;;;;;;;4.82;1.38;;;;;;;;;;5138006;27;20031;-62
2022/08/08 11:04:50;;;;;;;5.53;1.73;;;;;;;;;;5132995;27;20054;-62
2022/08/08 11:07:24;;;;;;;6.05;1.80;;;;;;;;;;5135513;27;20052;-62
2022/08/08 11:09:50;;;;;;;3.90;1.10;;;;;;;;;;5133270;27;20038;-62
2022/08/08 11:12:16;;;;;;;4.60;1.20;;;;;;;;;;5132762;27;20069;-62
2022/08/08 11:14:53;;;;;;;4.88;1.45;;;;;;;;;;5133989;27;20402;-62
2022/08/08 11:17:21;;;;;;;4.75;1.55;;;;;;;;;;5136851;27;20118;-62
2022/08/08 11:19:48;;;;;;;7.68;1.80;;;;;;;;;;5135980;27;20180;-62
2022/08/08 11:22:14;;;;;;;5.30;1.48;;;;;;;;;;5133356;27;20043;-62
2022/08/08 11:24:41;;;;;;;6.15;1.60;;;;;;;;;;5132857;27;20542;-62
2022/08/08 11:27:08;;;;;;;4.85;1.77;;;;;;;;;;5135701;27;20043;-62
2022/08/08 11:29:35;;;;;;;7.82;1.83;;;;;;;;;;5136722;27;20069;-62
2022/08/08 11:32:04;;;;;;;7.93;1.55;;;;;;;;;;5134518;27;20087;-62
2022/08/08 11:34:32;;;;;;;5.85;1.60;;;;;;;;;;5135503;27;20126;-62
2022/08/08 11:37:00;;;;;;;8.35;1.42;;;;;;;;;;5136796;27;20083;-62
2022/08/08 11:39:28;;;;;;;4.72;1.40;;;;;;;;;;5134103;27;20516;-62
2022/08/08 11:41:55;;;;;;;3.75;1.58;;;;;;;;;;5134675;27;20046;-62
2022/08/08 11:44:22;;;;;;;4.72;1.30;;;;;;;;;;5136153;27;20385;-62
2022/08/08 11:46:48;;;;;;;4.13;1.25;;;;;;;;;;5135938;27;20042;-62
2022/08/08 11:49:14;;;;;;;5.38;1.60;;;;;;;;;;5139367;27;20540;-62
2022/08/08 11:51:41;;;;;;;5.18;1.48;;;;;;;;;;5137698;27;20519;-62
2022/08/08 11:54:08;;;;;;;4.05;1.30;;;;;;;;;;5119414;27;20078;-62
2022/08/08 11:56:34;;;;;;;6.47;1.40;;;;;;;;;;5139342;27;20134;-62
2022/08/08 11:59:06;;;;;;;6.57;1.50;;;;;;;;;;5118941;27;20047;-62
2022/08/08 12:01:33;;;;;;;6.15;1.25;;;;;;;;;;5136729;27;20114;-62
2022/08/08 12:03:59;;;;;;;4.13;1.10;;;;;;;;;;5131807;27;20391;-62
2022/08/08 12:06:26;;;;;;;4.88;1.40;;;;;;;;;;5132663;27;20444;-62
2022/08/08 12:08:52;;;;;;;4.90;1.50;;;;;;;;;;5133038;27;20035;-62
2022/08/08 12:11:18;;;;;;;5.57;1.55;;;;;;;;;;5133691;27;20446;-62
2022/08/08 12:13:48;;;;;;;4.35;1.40;;;;;;;;;;5133569;27;20129;-62
2022/08/08 12:16:16;;;;;;;7.18;1.63;;;;;;;;;;5132261;27;20049;-62
2022/08/08 12:18:48;;;;;;;4.85;1.30;;;;;;;;;;5133055;27;20131;-62
2022/08/08 12:21:21;;;;;;;4.43;1.48;;;;;;;;;;5133551;27;20054;-62
2022/08/08 12:23:47;;;;;;;;;;;;;;;;;;5132903;27;20083;-62
2022/08/08 12:26:16;;;;;;;5.03;1.25;;;;;;;;;;5134284;27;19942;-62
2022/08/08 12:28:53;;;;;;;6.05;1.52;;;;;;;;;;5134831;27;20363;-62
2022/08/08 12:31:29;;;;;;;3.42;1.27;;;;;;;;;;5131680;27;20167;-62
2022/08/08 12:33:55;;;;;;;4.78;1.77;;;;;;;;;;5135773;27;20043;-62
2022/08/08 12:36:21;;;;;;;3.95;1.08;;;;;;;;;;5132957;27;20050;-62
2022/08/08 12:38:50;;;;;;;4.07;1.10;;;;;;;;;;5134722;27;20042;-62
2022/08/08 12:41:16;;;;;;;4.50;1.40;;;;;;;;;;5112976;27;20048;-62
2022/08/08 12:43:42;;;;;;;4.32;1.27;;;;;;;;;;5134735;27;20050;-62
2022/08/08 12:46:15;;;;;;;4.07;1.00;;;;;;;;;;5129522;27;20391;-62
2022/08/08 12:48:41;;;;;;;;;;;;;;;;;;5134455;27;20046;-62
2022/08/08 12:51:18;;;;;;;3.63;0.90;;;;;;;;;;5133401;27;19919;-62
2022/08/08 12:53:55;;;;;;;4.90;1.33;;;;;;;;;;5133860;27;20098;-62
2022/08/08 12:56:31;;;;;;;6.68;1.30;;;;;;;;;;5134044;27;20525;-62
2022/08/08 12:58:58;;;;;;;3.83;1.58;;;;;;;;;;5132836;27;20531;-62
2022/08/08 13:01:35;;;;;;;5.28;1.50;;;;;;;;;;5136531;27;20050;-62
2022/08/08 13:04:17;;;;;;;3.15;0.90;;;;;;;;;;5116698;27;20150;-62
2022/08/08 13:07:04;;;;;;;5.57;1.48;;;;;;;;;;5132701;27;20094;-62
2022/08/08 13:09:36;;;;;;;3.78;1.10;;;;;;;;;;5134359;27;20058;-62
2022/08/08 13:12:10;;;;;;;3.13;0.80;;;;;;;;;;5133899;27;20046;-62
2022/08/08 13:14:39;;;;;;;4.60;1.40;;;;;;;;;;5129293;27;20125;-62
2022/08/08 13:17:05;;;;;;;4.25;1.38;;;;;;;;;;5127891;27;20434;-62
2022/08/08 13:19:32;;;;;;;6.07;1.35;;;;;;;;;;5126954;27;20055;-62
2022/08/08 13:21:58;;;;;;;5.18;1.23;;;;;;;;;;5129289;27;20449;-62
2022/08/08 13:24:25;;;;;;;3.13;1.13;;;;;;;;;;5130716;27;20051;-62
2022/08/08 13:27:00;;;;;;;5.75;1.73;;;;;;;;;;5128625;27;20039;-62
2022/08/08 13:29:27;;;;;;;4.18;1.20;;;;;;;;;;5112387;27;20116;-62
2022/08/08 13:31:53;;;;;;;7.32;1.50;;;;;;;;;;5130410;27;20043;-62
2022/08/08 13:34:20;;;;;;;4.22;1.30;;;;;;;;;;5128285;27;20039;-62
2022/08/08 13:36:46;;;;;;;5.18;1.58;;;;;;;;;;5129192;27;20183;-62
2022/08/08 13:39:15;;;;;;;4.30;1.27;;;;;;;;;;5128993;27;20312;-62
2022/08/08 13:41:42;;;;;;;5.18;1.35;;;;;;;;;;5128972;27;20517;-62
2022/08/08 13:44:08;;;;;;;4.75;1.30;;;;;;;;;;5129975;27;20502;-62
2022/08/08 13:46:34;;;;;;;5.05;1.40;;;;;;;;;;5129045;27;20039;-62
2022/08/08 13:49:02;;;;;;;5.80;1.10;;;;;;;;;;5128608;27;20051;-62
2022/08/08 13:51:29;;;;;;;6.40;1.77;;;;;;;;;;5128197;27;20057;-62
2022/08/08 13:53:56;;;;;;;4.97;1.95;;;;;;;;;;5131180;27;21302;-62
2022/08/08 13:56:35;;;;;;;8.32;1.63;;;;;;;;;;5131437;27;20035;-62
2022/08/08 13:59:02;;;;;;;6.10;1.83;;;;;;;;;;5111398;27;20043;-62
2022/08/08 14:01:30;;;;;;;4.45;1.50;;;;;;;;;;5127016;27;20146;-62
2022/08/08 14:03:58;;;;;;;5.13;1.65;;;;;;;;;;5130185;27;20039;-62
2022/08/08 14:06:24;;;;;;;5.93;1.73;;;;;;;;;;5131805;27;20049;-62
2022/08/08 14:08:51;;;;;;;4.97;1.58;;;;;;;;;;5132197;27;20049;-62
2022/08/08 14:11:19;;;;;;;5.70;1.63;;;;;;;;;;5134642;27;20046;-62
2022/08/08 14:13:46;;;;;;;3.72;1.20;;;;;;;;;;5131754;27;20042;-62
2022/08/08 14:16:13;;;;;;;5.88;1.30;;;;;;;;;;5134029;27;20107;-62
2022/08/08 14:18:52;;;;;;;5.28;1.60;;;;;;;;;;5130232;27;20115;-62
2022/08/08 14:21:20;;;;;;;3.40;1.10;;;;;;;;;;5132888;27;20130;-62
2022/08/08 14:23:47;;;;;;;4.75;1.50;;;;;;;;;;5133322;27;20051;-62
2022/08/08 14:26:21;;;;;;;5.90;1.38;;;;;;;;;;5136954;27;20083;-62
2022/08/08 14:28:56;;;;;;;4.25;1.30;;;;;;;;;;5138180;27;20054;-62
2022/08/08 14:31:23;;;;;;;6.13;1.85;;;;;;;;;;5119026;27;20038;-62
2022/08/08 14:33:51;;;;;;;4.78;1.42;;;;;;;;;;5135019;27;20066;-62
2022/08/08 14:36:17;;;;;;;6.82;1.25;;;;;;;;;;5133894;27;20750;-62
2022/08/08 14:38:43;;;;;;;4.65;1.08;;;;;;;;;;5134882;27;20073;-62
2022/08/08 14:41:10;;;;;;;3.42;1.10;;;;;;;;;;5132532;27;20391;-62
2022/08/08 14:43:45;;;;;;;8.07;1.20;;;;;;;;;;5139950;27;20043;-62
2022/08/08 14:46:13;;;;;;;6.03;1.02;;;;;;;;;;5135484;27;20040;-62
2022/08/08 14:48:46;;;;;;;6.28;1.40;;;;;;;;;;5137943;27;20042;-62
2022/08/08 14:51:13;;;;;;;5.78;1.20;;;;;;;;;;5137561;27;20133;-62
2022/08/08 14:53:40;;;;;;;4.45;1.20;;;;;;;;;;5134149;27;20168;-62
2022/08/08 14:56:06;;;;;;;5.15;1.25;;;;;;;;;;5136785;27;20466;-62
2022/08/08 14:58:32;;;;;;;3.25;1.02;;;;;;;;;;5130831;27;20050;-62